sensor_id;sensor_type;location;lat;lon;timestamp;P1;durP1;ratioP1;P2;durP2;ratioP2
47337;SDS011;33069;51.970;5.892;2023-05-29T00:00:19;27.20;;;6.13;;
47337;SDS011;33069;51.970;5.892;2023-05-29T00:02:49;23.02;;;5.35;;
47337;SDS011;33069;51.970;5.892;2023-05-29T00:05:15;23.13;;;6.55;;
47337;SDS011;33069;51.970;5.892;2023-05-29T00:07:42;38.22;;;10.70;;
47337;SDS011;33069;51.970;5.892;2023-05-29T00:10:08;27.45;;;5.93;;
47337;SDS011;33069;51.970;5.892;2023-05-29T00:12:35;25.60;;;8.23;;
47337;SDS011;33069;51.970;5.892;2023-05-29T00:15:02;28.58;;;7.25;;
47337;SDS011;33069;51.970;5.892;2023-05-29T00:17:31;26.60;;;5.60;;
47337;SDS011;33069;51.970;5.892;2023-05-29T00:20:00;22.38;;;7.05;;
47337;SDS011;33069;51.970;5.892;2023-05-29T00:22:27;22.30;;;5.07;;
47337;SDS011;33069;51.970;5.892;2023-05-29T00:24:52;29.35;;;6.47;;
47337;SDS011;33069;51.970;5.892;2023-05-29T00:27:18;27.38;;;5.00;;
47337;SDS011;33069;51.970;5.892;2023-05-29T00:29:44;31.30;;;7.35;;
47337;SDS011;33069;51.970;5.892;2023-05-29T00:32:11;17.92;;;4.75;;
47337;SDS011;33069;51.970;5.892;2023-05-29T00:34:37;23.20;;;5.38;;
47337;SDS011;33069;51.970;5.892;2023-05-29T00:37:02;20.45;;;5.25;;
47337;SDS011;33069;51.970;5.892;2023-05-29T00:39:28;24.70;;;4.60;;
47337;SDS011;33069;51.970;5.892;2023-05-29T00:41:54;21.58;;;5.00;;
47337;SDS011;33069;51.970;5.892;2023-05-29T00:44:20;21.08;;;5.78;;
47337;SDS011;33069;51.970;5.892;2023-05-29T00:46:47;20.80;;;4.55;;
47337;SDS011;33069;51.970;5.892;2023-05-29T00:49:16;21.48;;;5.63;;
47337;SDS011;33069;51.970;5.892;2023-05-29T00:51:42;19.65;;;6.03;;
47337;SDS011;33069;51.970;5.892;2023-05-29T00:54:09;20.58;;;4.50;;
47337;SDS011;33069;51.970;5.892;2023-05-29T00:56:41;17.70;;;6.28;;
47337;SDS011;33069;51.970;5.892;2023-05-29T00:59:10;24.52;;;5.05;;
47337;SDS011;33069;51.970;5.892;2023-05-29T01:01:36;23.52;;;5.78;;
47337;SDS011;33069;51.970;5.892;2023-05-29T01:04:03;24.48;;;5.57;;
47337;SDS011;33069;51.970;5.892;2023-05-29T01:06:31;22.88;;;6.00;;
47337;SDS011;33069;51.970;5.892;2023-05-29T01:08:58;21.92;;;5.03;;
47337;SDS011;33069;51.970;5.892;2023-05-29T01:14:03;24.30;;;5.57;;
47337;SDS011;33069;51.970;5.892;2023-05-29T01:22:12;23.30;;;5.28;;
47337;SDS011;33069;51.970;5.892;2023-05-29T01:24:49;19.98;;;4.03;;
47337;SDS011;33069;51.970;5.892;2023-05-29T01:27:22;26.48;;;4.55;;
47337;SDS011;33069;51.970;5.892;2023-05-29T01:29:51;24.70;;;4.78;;
47337;SDS011;33069;51.970;5.892;2023-05-29T01:32:17;23.13;;;4.85;;
47337;SDS011;33069;51.970;5.892;2023-05-29T01:34:44;30.10;;;5.57;;
47337;SDS011;33069;51.970;5.892;2023-05-29T01:37:10;24.13;;;4.75;;
47337;SDS011;33069;51.970;5.892;2023-05-29T01:39:36;22.88;;;5.32;;
47337;SDS011;33069;51.970;5.892;2023-05-29T01:42:02;16.55;;;4.53;;
47337;SDS011;33069;51.970;5.892;2023-05-29T01:44:29;28.23;;;4.88;;
47337;SDS011;33069;51.970;5.892;2023-05-29T01:46:56;25.50;;;5.00;;
47337;SDS011;33069;51.970;5.892;2023-05-29T01:49:25;19.27;;;5.40;;
47337;SDS011;33069;51.970;5.892;2023-05-29T01:51:52;24.83;;;5.35;;
47337;SDS011;33069;51.970;5.892;2023-05-29T01:54:18;24.48;;;5.43;;
47337;SDS011;33069;51.970;5.892;2023-05-29T01:56:44;34.13;;;5.45;;
47337;SDS011;33069;51.970;5.892;2023-05-29T01:59:11;24.98;;;4.90;;
47337;SDS011;33069;51.970;5.892;2023-05-29T02:01:41;27.38;;;6.15;;
47337;SDS011;33069;51.970;5.892;2023-05-29T02:04:07;25.25;;;5.78;;
47337;SDS011;33069;51.970;5.892;2023-05-29T02:06:32;24.75;;;5.65;;
47337;SDS011;33069;51.970;5.892;2023-05-29T02:08:59;33.17;;;5.60;;
47337;SDS011;33069;51.970;5.892;2023-05-29T02:11:24;28.38;;;5.00;;
47337;SDS011;33069;51.970;5.892;2023-05-29T02:13:51;33.55;;;5.35;;
47337;SDS011;33069;51.970;5.892;2023-05-29T02:16:17;27.05;;;5.47;;
47337;SDS011;33069;51.970;5.892;2023-05-29T02:18:45;24.15;;;4.30;;
47337;SDS011;33069;51.970;5.892;2023-05-29T02:21:11;27.63;;;5.28;;
47337;SDS011;33069;51.970;5.892;2023-05-29T02:23:38;23.73;;;5.68;;
47337;SDS011;33069;51.970;5.892;2023-05-29T02:26:04;29.33;;;5.47;;
47337;SDS011;33069;51.970;5.892;2023-05-29T02:28:30;30.27;;;6.68;;
47337;SDS011;33069;51.970;5.892;2023-05-29T02:30:56;21.55;;;4.78;;
47337;SDS011;33069;51.970;5.892;2023-05-29T02:33:21;31.35;;;5.40;;
47337;SDS011;33069;51.970;5.892;2023-05-29T02:35:47;32.67;;;6.78;;
47337;SDS011;33069;51.970;5.892;2023-05-29T02:38:13;26.90;;;5.63;;
47337;SDS011;33069;51.970;5.892;2023-05-29T02:40:38;24.77;;;6.57;;
47337;SDS011;33069;51.970;5.892;2023-05-29T02:43:05;20.95;;;4.47;;
47337;SDS011;33069;51.970;5.892;2023-05-29T02:45:31;25.63;;;4.72;;
47337;SDS011;33069;51.970;5.892;2023-05-29T02:47:57;19.40;;;4.57;;
47337;SDS011;33069;51.970;5.892;2023-05-29T02:50:22;29.65;;;5.65;;
47337;SDS011;33069;51.970;5.892;2023-05-29T02:52:48;29.77;;;5.85;;
47337;SDS011;33069;51.970;5.892;2023-05-29T02:55:14;21.27;;;5.07;;
47337;SDS011;33069;51.970;5.892;2023-05-29T02:57:40;26.70;;;5.25;;
47337;SDS011;33069;51.970;5.892;2023-05-29T03:00:07;22.13;;;5.22;;
47337;SDS011;33069;51.970;5.892;2023-05-29T03:02:33;27.00;;;6.10;;
47337;SDS011;33069;51.970;5.892;2023-05-29T03:05:00;20.70;;;4.70;;
47337;SDS011;33069;51.970;5.892;2023-05-29T03:07:26;30.45;;;4.85;;
47337;SDS011;33069;51.970;5.892;2023-05-29T03:09:51;24.00;;;6.25;;
47337;SDS011;33069;51.970;5.892;2023-05-29T03:12:17;27.45;;;6.18;;
47337;SDS011;33069;51.970;5.892;2023-05-29T03:14:44;30.45;;;5.05;;
47337;SDS011;33069;51.970;5.892;2023-05-29T03:17:10;23.77;;;4.30;;
47337;SDS011;33069;51.970;5.892;2023-05-29T03:19:35;22.25;;;6.63;;
47337;SDS011;33069;51.970;5.892;2023-05-29T03:22:02;25.67;;;5.38;;
47337;SDS011;33069;51.970;5.892;2023-05-29T03:24:28;25.58;;;5.25;;
47337;SDS011;33069;51.970;5.892;2023-05-29T03:26:54;29.10;;;4.97;;
47337;SDS011;33069;51.970;5.892;2023-05-29T03:29:21;27.58;;;4.85;;
47337;SDS011;33069;51.970;5.892;2023-05-29T03:31:47;27.45;;;4.68;;
47337;SDS011;33069;51.970;5.892;2023-05-29T03:34:12;23.13;;;5.25;;
47337;SDS011;33069;51.970;5.892;2023-05-29T03:36:38;37.65;;;7.50;;
47337;SDS011;33069;51.970;5.892;2023-05-29T03:39:04;28.55;;;4.97;;
47337;SDS011;33069;51.970;5.892;2023-05-29T03:41:31;30.25;;;6.18;;
47337;SDS011;33069;51.970;5.892;2023-05-29T03:43:57;31.40;;;5.18;;
47337;SDS011;33069;51.970;5.892;2023-05-29T03:46:23;26.90;;;5.15;;
47337;SDS011;33069;51.970;5.892;2023-05-29T03:48:48;30.67;;;5.50;;
47337;SDS011;33069;51.970;5.892;2023-05-29T03:51:14;27.35;;;6.10;;
47337;SDS011;33069;51.970;5.892;2023-05-29T03:53:40;27.63;;;4.90;;
47337;SDS011;33069;51.970;5.892;2023-05-29T03:56:05;22.77;;;5.10;;
47337;SDS011;33069;51.970;5.892;2023-05-29T03:58:31;25.90;;;6.15;;
47337;SDS011;33069;51.970;5.892;2023-05-29T04:00:57;31.52;;;4.95;;
47337;SDS011;33069;51.970;5.892;2023-05-29T04:03:23;22.10;;;4.60;;
47337;SDS011;33069;51.970;5.892;2023-05-29T04:05:48;29.88;;;6.80;;
47337;SDS011;33069;51.970;5.892;2023-05-29T04:08:14;35.58;;;5.25;;
47337;SDS011;33069;51.970;5.892;2023-05-29T04:10:40;24.90;;;5.07;;
47337;SDS011;33069;51.970;5.892;2023-05-29T04:13:06;28.60;;;5.00;;
47337;SDS011;33069;51.970;5.892;2023-05-29T04:15:32;23.00;;;4.65;;
47337;SDS011;33069;51.970;5.892;2023-05-29T04:18:01;32.45;;;7.78;;
47337;SDS011;33069;51.970;5.892;2023-05-29T04:20:26;27.60;;;5.13;;
47337;SDS011;33069;51.970;5.892;2023-05-29T04:22:52;31.08;;;4.78;;
47337;SDS011;33069;51.970;5.892;2023-05-29T04:25:18;20.40;;;5.15;;
47337;SDS011;33069;51.970;5.892;2023-05-29T04:27:46;35.47;;;7.95;;
47337;SDS011;33069;51.970;5.892;2023-05-29T04:30:13;26.55;;;5.00;;
47337;SDS011;33069;51.970;5.892;2023-05-29T04:32:40;25.00;;;5.95;;
47337;SDS011;33069;51.970;5.892;2023-05-29T04:35:06;22.27;;;4.78;;
47337;SDS011;33069;51.970;5.892;2023-05-29T04:37:31;22.58;;;4.90;;
47337;SDS011;33069;51.970;5.892;2023-05-29T04:40:03;21.27;;;5.53;;
47337;SDS011;33069;51.970;5.892;2023-05-29T04:42:33;22.63;;;4.65;;
47337;SDS011;33069;51.970;5.892;2023-05-29T04:45:02;25.98;;;5.13;;
47337;SDS011;33069;51.970;5.892;2023-05-29T04:47:30;30.17;;;5.45;;
47337;SDS011;33069;51.970;5.892;2023-05-29T04:49:58;23.52;;;5.10;;
47337;SDS011;33069;51.970;5.892;2023-05-29T04:52:24;21.48;;;5.03;;
47337;SDS011;33069;51.970;5.892;2023-05-29T04:54:50;29.27;;;4.90;;
47337;SDS011;33069;51.970;5.892;2023-05-29T04:57:17;25.13;;;5.38;;
47337;SDS011;33069;51.970;5.892;2023-05-29T04:59:43;26.33;;;5.18;;
47337;SDS011;33069;51.970;5.892;2023-05-29T05:02:08;24.63;;;4.97;;
47337;SDS011;33069;51.970;5.892;2023-05-29T05:04:34;21.20;;;5.50;;
47337;SDS011;33069;51.970;5.892;2023-05-29T05:07:00;32.85;;;6.70;;
47337;SDS011;33069;51.970;5.892;2023-05-29T05:09:27;26.42;;;4.45;;
47337;SDS011;33069;51.970;5.892;2023-05-29T05:11:52;22.88;;;6.03;;
47337;SDS011;33069;51.970;5.892;2023-05-29T05:14:18;22.52;;;4.68;;
47337;SDS011;33069;51.970;5.892;2023-05-29T05:16:44;27.58;;;5.13;;
47337;SDS011;33069;51.970;5.892;2023-05-29T05:19:09;25.67;;;4.68;;
47337;SDS011;33069;51.970;5.892;2023-05-29T05:21:35;24.27;;;5.68;;
47337;SDS011;33069;51.970;5.892;2023-05-29T05:24:01;21.08;;;4.57;;
47337;SDS011;33069;51.970;5.892;2023-05-29T05:26:27;19.63;;;4.85;;
47337;SDS011;33069;51.970;5.892;2023-05-29T05:28:53;24.55;;;5.38;;
47337;SDS011;33069;51.970;5.892;2023-05-29T05:31:19;21.08;;;4.93;;
47337;SDS011;33069;51.970;5.892;2023-05-29T05:33:44;25.98;;;5.65;;
47337;SDS011;33069;51.970;5.892;2023-05-29T05:36:10;20.85;;;5.35;;
47337;SDS011;33069;51.970;5.892;2023-05-29T05:38:36;25.85;;;4.95;;
47337;SDS011;33069;51.970;5.892;2023-05-29T05:41:02;21.85;;;5.93;;
47337;SDS011;33069;51.970;5.892;2023-05-29T05:43:28;21.58;;;5.57;;
47337;SDS011;33069;51.970;5.892;2023-05-29T05:45:54;22.13;;;5.13;;
47337;SDS011;33069;51.970;5.892;2023-05-29T05:48:20;18.60;;;5.65;;
47337;SDS011;33069;51.970;5.892;2023-05-29T05:50:46;24.58;;;5.50;;
47337;SDS011;33069;51.970;5.892;2023-05-29T05:53:11;21.83;;;5.63;;
47337;SDS011;33069;51.970;5.892;2023-05-29T05:55:37;29.95;;;6.20;;
47337;SDS011;33069;51.970;5.892;2023-05-29T05:58:03;25.15;;;5.22;;
47337;SDS011;33069;51.970;5.892;2023-05-29T06:00:28;22.70;;;5.18;;
47337;SDS011;33069;51.970;5.892;2023-05-29T06:02:54;23.38;;;5.50;;
47337;SDS011;33069;51.970;5.892;2023-05-29T06:05:20;28.23;;;6.07;;
47337;SDS011;33069;51.970;5.892;2023-05-29T06:07:46;25.73;;;6.53;;
47337;SDS011;33069;51.970;5.892;2023-05-29T06:10:12;22.45;;;5.68;;
47337;SDS011;33069;51.970;5.892;2023-05-29T06:12:38;27.85;;;6.88;;
47337;SDS011;33069;51.970;5.892;2023-05-29T06:15:04;20.00;;;6.47;;
47337;SDS011;33069;51.970;5.892;2023-05-29T06:17:30;24.15;;;5.35;;
47337;SDS011;33069;51.970;5.892;2023-05-29T06:19:56;21.08;;;5.95;;
47337;SDS011;33069;51.970;5.892;2023-05-29T06:22:22;22.70;;;5.97;;
47337;SDS011;33069;51.970;5.892;2023-05-29T06:24:48;24.15;;;5.93;;
47337;SDS011;33069;51.970;5.892;2023-05-29T06:27:13;24.60;;;6.05;;
47337;SDS011;33069;51.970;5.892;2023-05-29T06:29:39;26.15;;;8.52;;
47337;SDS011;33069;51.970;5.892;2023-05-29T06:32:05;33.47;;;7.82;;
47337;SDS011;33069;51.970;5.892;2023-05-29T06:34:31;23.35;;;5.93;;
47337;SDS011;33069;51.970;5.892;2023-05-29T06:36:57;20.10;;;6.72;;
47337;SDS011;33069;51.970;5.892;2023-05-29T06:39:22;25.52;;;5.15;;
47337;SDS011;33069;51.970;5.892;2023-05-29T06:41:49;21.58;;;6.90;;
47337;SDS011;33069;51.970;5.892;2023-05-29T06:44:14;19.88;;;6.85;;
47337;SDS011;33069;51.970;5.892;2023-05-29T06:46:40;20.15;;;5.72;;
47337;SDS011;33069;51.970;5.892;2023-05-29T06:49:06;15.23;;;5.22;;
47337;SDS011;33069;51.970;5.892;2023-05-29T06:51:32;21.13;;;7.85;;
47337;SDS011;33069;51.970;5.892;2023-05-29T06:53:58;20.15;;;5.90;;
47337;SDS011;33069;51.970;5.892;2023-05-29T06:56:24;26.73;;;6.35;;
47337;SDS011;33069;51.970;5.892;2023-05-29T06:58:51;21.65;;;5.88;;
47337;SDS011;33069;51.970;5.892;2023-05-29T07:01:17;22.98;;;5.57;;
47337;SDS011;33069;51.970;5.892;2023-05-29T07:03:43;25.00;;;7.13;;
47337;SDS011;33069;51.970;5.892;2023-05-29T07:06:08;19.77;;;5.90;;
47337;SDS011;33069;51.970;5.892;2023-05-29T07:08:35;26.27;;;6.28;;
47337;SDS011;33069;51.970;5.892;2023-05-29T07:11:01;17.10;;;5.90;;
47337;SDS011;33069;51.970;5.892;2023-05-29T07:13:27;27.55;;;7.30;;
47337;SDS011;33069;51.970;5.892;2023-05-29T07:15:53;25.23;;;5.55;;
47337;SDS011;33069;51.970;5.892;2023-05-29T07:18:18;22.30;;;6.35;;
47337;SDS011;33069;51.970;5.892;2023-05-29T07:20:44;21.75;;;6.38;;
47337;SDS011;33069;51.970;5.892;2023-05-29T07:23:10;25.55;;;6.40;;
47337;SDS011;33069;51.970;5.892;2023-05-29T07:25:35;19.88;;;6.95;;
47337;SDS011;33069;51.970;5.892;2023-05-29T07:28:01;19.55;;;6.47;;
47337;SDS011;33069;51.970;5.892;2023-05-29T07:30:27;19.13;;;5.68;;
47337;SDS011;33069;51.970;5.892;2023-05-29T07:32:53;17.67;;;5.72;;
47337;SDS011;33069;51.970;5.892;2023-05-29T07:35:18;22.48;;;8.88;;
47337;SDS011;33069;51.970;5.892;2023-05-29T07:37:44;21.38;;;7.07;;
47337;SDS011;33069;51.970;5.892;2023-05-29T07:40:10;21.73;;;7.82;;
47337;SDS011;33069;51.970;5.892;2023-05-29T07:42:36;22.80;;;7.95;;
47337;SDS011;33069;51.970;5.892;2023-05-29T07:45:01;18.65;;;6.53;;
47337;SDS011;33069;51.970;5.892;2023-05-29T07:47:27;19.10;;;6.20;;
47337;SDS011;33069;51.970;5.892;2023-05-29T07:49:53;21.85;;;7.10;;
47337;SDS011;33069;51.970;5.892;2023-05-29T07:52:18;19.73;;;7.50;;
47337;SDS011;33069;51.970;5.892;2023-05-29T07:54:44;15.93;;;7.15;;
47337;SDS011;33069;51.970;5.892;2023-05-29T07:57:10;20.63;;;7.80;;
47337;SDS011;33069;51.970;5.892;2023-05-29T07:59:36;22.25;;;6.97;;
47337;SDS011;33069;51.970;5.892;2023-05-29T08:02:03;21.67;;;7.32;;
47337;SDS011;33069;51.970;5.892;2023-05-29T08:04:30;20.25;;;7.53;;
47337;SDS011;33069;51.970;5.892;2023-05-29T08:06:56;18.30;;;7.50;;
47337;SDS011;33069;51.970;5.892;2023-05-29T08:09:22;18.55;;;6.75;;
47337;SDS011;33069;51.970;5.892;2023-05-29T08:11:47;15.68;;;6.28;;
47337;SDS011;33069;51.970;5.892;2023-05-29T08:14:13;18.45;;;7.30;;
47337;SDS011;33069;51.970;5.892;2023-05-29T08:16:40;19.20;;;6.97;;
47337;SDS011;33069;51.970;5.892;2023-05-29T08:19:06;25.98;;;7.07;;
47337;SDS011;33069;51.970;5.892;2023-05-29T08:21:31;15.95;;;7.60;;
47337;SDS011;33069;51.970;5.892;2023-05-29T08:23:57;18.20;;;8.02;;
47337;SDS011;33069;51.970;5.892;2023-05-29T08:26:24;19.48;;;6.75;;
47337;SDS011;33069;51.970;5.892;2023-05-29T08:28:49;15.70;;;7.00;;
47337;SDS011;33069;51.970;5.892;2023-05-29T08:31:15;19.35;;;7.53;;
47337;SDS011;33069;51.970;5.892;2023-05-29T08:33:41;21.60;;;9.10;;
47337;SDS011;33069;51.970;5.892;2023-05-29T08:36:07;16.15;;;7.72;;
47337;SDS011;33069;51.970;5.892;2023-05-29T08:38:35;21.58;;;8.45;;
47337;SDS011;33069;51.970;5.892;2023-05-29T08:41:01;21.77;;;7.55;;
47337;SDS011;33069;51.970;5.892;2023-05-29T08:43:31;14.70;;;7.47;;
47337;SDS011;33069;51.970;5.892;2023-05-29T08:46:01;14.27;;;7.53;;
47337;SDS011;33069;51.970;5.892;2023-05-29T08:48:28;19.08;;;9.07;;
47337;SDS011;33069;51.970;5.892;2023-05-29T08:50:56;20.70;;;7.68;;
47337;SDS011;33069;51.970;5.892;2023-05-29T08:53:23;23.35;;;7.40;;
47337;SDS011;33069;51.970;5.892;2023-05-29T08:55:50;16.02;;;7.78;;
47337;SDS011;33069;51.970;5.892;2023-05-29T08:58:20;19.50;;;7.30;;
47337;SDS011;33069;51.970;5.892;2023-05-29T09:00:47;17.50;;;7.47;;
47337;SDS011;33069;51.970;5.892;2023-05-29T09:03:13;14.07;;;7.70;;
47337;SDS011;33069;51.970;5.892;2023-05-29T09:05:40;12.77;;;7.30;;
47337;SDS011;33069;51.970;5.892;2023-05-29T09:08:09;17.35;;;7.38;;
47337;SDS011;33069;51.970;5.892;2023-05-29T09:10:43;17.77;;;7.57;;
47337;SDS011;33069;51.970;5.892;2023-05-29T09:13:10;17.77;;;7.88;;
47337;SDS011;33069;51.970;5.892;2023-05-29T09:15:38;16.55;;;6.97;;
47337;SDS011;33069;51.970;5.892;2023-05-29T09:18:08;16.85;;;7.70;;
47337;SDS011;33069;51.970;5.892;2023-05-29T09:20:34;15.25;;;7.70;;
47337;SDS011;33069;51.970;5.892;2023-05-29T09:23:01;14.57;;;7.35;;
47337;SDS011;33069;51.970;5.892;2023-05-29T09:25:32;12.35;;;7.07;;
47337;SDS011;33069;51.970;5.892;2023-05-29T09:28:00;16.23;;;7.65;;
47337;SDS011;33069;51.970;5.892;2023-05-29T09:30:31;15.90;;;6.88;;
47337;SDS011;33069;51.970;5.892;2023-05-29T09:32:59;19.20;;;8.35;;
47337;SDS011;33069;51.970;5.892;2023-05-29T09:35:27;14.60;;;7.47;;
47337;SDS011;33069;51.970;5.892;2023-05-29T09:37:57;15.27;;;8.07;;
47337;SDS011;33069;51.970;5.892;2023-05-29T09:40:23;17.77;;;7.72;;
47337;SDS011;33069;51.970;5.892;2023-05-29T09:42:49;13.23;;;7.32;;
47337;SDS011;33069;51.970;5.892;2023-05-29T09:45:18;16.83;;;8.25;;
47337;SDS011;33069;51.970;5.892;2023-05-29T09:47:45;13.90;;;7.30;;
47337;SDS011;33069;51.970;5.892;2023-05-29T09:50:20;16.30;;;7.88;;
47337;SDS011;33069;51.970;5.892;2023-05-29T09:52:50;18.15;;;9.65;;
47337;SDS011;33069;51.970;5.892;2023-05-29T09:55:17;13.30;;;8.07;;
47337;SDS011;33069;51.970;5.892;2023-05-29T09:57:46;15.35;;;7.35;;
47337;SDS011;33069;51.970;5.892;2023-05-29T10:00:14;16.88;;;8.23;;
47337;SDS011;33069;51.970;5.892;2023-05-29T10:02:42;14.75;;;7.28;;
47337;SDS011;33069;51.970;5.892;2023-05-29T10:05:08;11.60;;;7.13;;
47337;SDS011;33069;51.970;5.892;2023-05-29T10:07:36;18.25;;;8.20;;
47337;SDS011;33069;51.970;5.892;2023-05-29T10:10:05;19.80;;;7.95;;
47337;SDS011;33069;51.970;5.892;2023-05-29T10:12:37;13.10;;;7.63;;
47337;SDS011;33069;51.970;5.892;2023-05-29T10:15:13;14.05;;;7.57;;
47337;SDS011;33069;51.970;5.892;2023-05-29T10:20:27;16.35;;;6.88;;
47337;SDS011;33069;51.970;5.892;2023-05-29T10:22:54;18.95;;;7.78;;
47337;SDS011;33069;51.970;5.892;2023-05-29T10:25:22;18.50;;;8.65;;
47337;SDS011;33069;51.970;5.892;2023-05-29T10:27:49;15.40;;;7.22;;
47337;SDS011;33069;51.970;5.892;2023-05-29T10:35:48;15.70;;;7.15;;
47337;SDS011;33069;51.970;5.892;2023-05-29T10:38:20;23.50;;;7.65;;
47337;SDS011;33069;51.970;5.892;2023-05-29T10:40:46;15.77;;;7.03;;
47337;SDS011;33069;51.970;5.892;2023-05-29T10:43:31;17.88;;;7.25;;
47337;SDS011;33069;51.970;5.892;2023-05-29T10:45:58;12.77;;;6.15;;
47337;SDS011;33069;51.970;5.892;2023-05-29T10:50:53;16.88;;;6.10;;
47337;SDS011;33069;51.970;5.892;2023-05-29T10:53:23;15.27;;;5.30;;
47337;SDS011;33069;51.970;5.892;2023-05-29T10:55:53;14.53;;;6.27;;
47337;SDS011;33069;51.970;5.892;2023-05-29T10:58:20;14.73;;;6.90;;
47337;SDS011;33069;51.970;5.892;2023-05-29T11:00:48;17.35;;;6.63;;
47337;SDS011;33069;51.970;5.892;2023-05-29T11:03:14;15.15;;;6.47;;
47337;SDS011;33069;51.970;5.892;2023-05-29T11:05:56;12.40;;;6.15;;
47337;SDS011;33069;51.970;5.892;2023-05-29T11:08:28;15.02;;;6.70;;
47337;SDS011;33069;51.970;5.892;2023-05-29T11:11:01;15.50;;;6.82;;
47337;SDS011;33069;51.970;5.892;2023-05-29T11:18:55;16.55;;;6.47;;
47337;SDS011;33069;51.970;5.892;2023-05-29T11:24:06;15.02;;;6.32;;
47337;SDS011;33069;51.970;5.892;2023-05-29T11:26:32;16.05;;;6.00;;
47337;SDS011;33069;51.970;5.892;2023-05-29T11:29:05;14.65;;;6.10;;
47337;SDS011;33069;51.970;5.892;2023-05-29T11:31:35;15.32;;;6.82;;
47337;SDS011;33069;51.970;5.892;2023-05-29T11:34:03;16.13;;;6.88;;
47337;SDS011;33069;51.970;5.892;2023-05-29T11:36:33;13.68;;;6.30;;
47337;SDS011;33069;51.970;5.892;2023-05-29T11:39:00;16.13;;;6.63;;
47337;SDS011;33069;51.970;5.892;2023-05-29T11:41:26;13.90;;;6.55;;
47337;SDS011;33069;51.970;5.892;2023-05-29T11:43:58;13.93;;;6.13;;
47337;SDS011;33069;51.970;5.892;2023-05-29T11:46:27;13.05;;;6.78;;
47337;SDS011;33069;51.970;5.892;2023-05-29T11:48:56;14.85;;;7.65;;
47337;SDS011;33069;51.970;5.892;2023-05-29T11:51:22;15.57;;;6.88;;
47337;SDS011;33069;51.970;5.892;2023-05-29T11:53:48;14.23;;;7.18;;
47337;SDS011;33069;51.970;5.892;2023-05-29T11:56:15;15.40;;;7.22;;
47337;SDS011;33069;51.970;5.892;2023-05-29T11:58:41;23.60;;;9.13;;
47337;SDS011;33069;51.970;5.892;2023-05-29T12:01:07;13.85;;;6.32;;
47337;SDS011;33069;51.970;5.892;2023-05-29T12:03:40;15.25;;;7.13;;
47337;SDS011;33069;51.970;5.892;2023-05-29T12:06:08;20.63;;;8.07;;
47337;SDS011;33069;51.970;5.892;2023-05-29T12:08:35;19.42;;;8.68;;
47337;SDS011;33069;51.970;5.892;2023-05-29T12:11:01;15.45;;;7.40;;
47337;SDS011;33069;51.970;5.892;2023-05-29T12:13:27;14.93;;;7.15;;
47337;SDS011;33069;51.970;5.892;2023-05-29T12:16:00;20.83;;;7.47;;
47337;SDS011;33069;51.970;5.892;2023-05-29T12:18:29;13.38;;;7.03;;
47337;SDS011;33069;51.970;5.892;2023-05-29T12:21:01;17.27;;;7.38;;
47337;SDS011;33069;51.970;5.892;2023-05-29T12:23:29;18.50;;;7.00;;
47337;SDS011;33069;51.970;5.892;2023-05-29T12:25:55;17.75;;;6.85;;
47337;SDS011;33069;51.970;5.892;2023-05-29T12:28:22;16.25;;;7.18;;
47337;SDS011;33069;51.970;5.892;2023-05-29T12:30:48;17.00;;;7.07;;
47337;SDS011;33069;51.970;5.892;2023-05-29T12:33:27;14.75;;;6.95;;
47337;SDS011;33069;51.970;5.892;2023-05-29T12:35:54;20.70;;;7.57;;
47337;SDS011;33069;51.970;5.892;2023-05-29T12:38:26;19.75;;;8.15;;
47337;SDS011;33069;51.970;5.892;2023-05-29T12:40:52;20.15;;;8.20;;
47337;SDS011;33069;51.970;5.892;2023-05-29T12:43:18;18.98;;;8.15;;
47337;SDS011;33069;51.970;5.892;2023-05-29T12:45:44;22.02;;;7.78;;
47337;SDS011;33069;51.970;5.892;2023-05-29T12:48:10;16.15;;;7.30;;
47337;SDS011;33069;51.970;5.892;2023-05-29T12:50:39;12.75;;;7.43;;
47337;SDS011;33069;51.970;5.892;2023-05-29T12:53:09;18.30;;;8.35;;
47337;SDS011;33069;51.970;5.892;2023-05-29T12:55:40;16.27;;;7.53;;
47337;SDS011;33069;51.970;5.892;2023-05-29T12:58:07;14.85;;;7.60;;
47337;SDS011;33069;51.970;5.892;2023-05-29T13:00:39;19.75;;;7.53;;
47337;SDS011;33069;51.970;5.892;2023-05-29T13:03:06;16.42;;;8.07;;
47337;SDS011;33069;51.970;5.892;2023-05-29T13:05:33;15.95;;;7.95;;
47337;SDS011;33069;51.970;5.892;2023-05-29T13:07:59;22.98;;;7.47;;
47337;SDS011;33069;51.970;5.892;2023-05-29T13:10:25;20.00;;;7.35;;
47337;SDS011;33069;51.970;5.892;2023-05-29T13:12:55;18.08;;;6.97;;
47337;SDS011;33069;51.970;5.892;2023-05-29T13:15:24;21.67;;;6.93;;
47337;SDS011;33069;51.970;5.892;2023-05-29T13:17:51;24.35;;;8.15;;
47337;SDS011;33069;51.970;5.892;2023-05-29T13:20:18;14.98;;;7.45;;
47337;SDS011;33069;51.970;5.892;2023-05-29T13:22:45;15.63;;;7.07;;
47337;SDS011;33069;51.970;5.892;2023-05-29T13:25:12;16.90;;;6.93;;
47337;SDS011;33069;51.970;5.892;2023-05-29T13:27:41;17.15;;;6.97;;
47337;SDS011;33069;51.970;5.892;2023-05-29T13:30:09;16.02;;;7.50;;
47337;SDS011;33069;51.970;5.892;2023-05-29T13:32:35;13.35;;;7.30;;
47337;SDS011;33069;51.970;5.892;2023-05-29T13:35:02;12.60;;;7.00;;
47337;SDS011;33069;51.970;5.892;2023-05-29T13:37:28;20.15;;;6.70;;
47337;SDS011;33069;51.970;5.892;2023-05-29T13:39:54;17.80;;;8.23;;
47337;SDS011;33069;51.970;5.892;2023-05-29T13:42:20;22.85;;;8.00;;
47337;SDS011;33069;51.970;5.892;2023-05-29T13:44:47;17.05;;;7.30;;
47337;SDS011;33069;51.970;5.892;2023-05-29T13:47:14;16.73;;;7.80;;
47337;SDS011;33069;51.970;5.892;2023-05-29T13:49:40;15.70;;;7.32;;
47337;SDS011;33069;51.970;5.892;2023-05-29T13:52:06;16.05;;;8.63;;
47337;SDS011;33069;51.970;5.892;2023-05-29T13:54:32;19.95;;;8.52;;
47337;SDS011;33069;51.970;5.892;2023-05-29T13:57:04;20.15;;;7.30;;
47337;SDS011;33069;51.970;5.892;2023-05-29T13:59:31;14.00;;;7.47;;
47337;SDS011;33069;51.970;5.892;2023-05-29T14:01:58;15.32;;;7.32;;
47337;SDS011;33069;51.970;5.892;2023-05-29T14:04:24;14.07;;;7.47;;
47337;SDS011;33069;51.970;5.892;2023-05-29T14:06:49;16.92;;;7.43;;
47337;SDS011;33069;51.970;5.892;2023-05-29T14:09:16;16.60;;;7.95;;
47337;SDS011;33069;51.970;5.892;2023-05-29T14:11:42;13.25;;;7.32;;
47337;SDS011;33069;51.970;5.892;2023-05-29T14:14:07;17.98;;;8.30;;
47337;SDS011;33069;51.970;5.892;2023-05-29T14:16:33;15.13;;;7.50;;
47337;SDS011;33069;51.970;5.892;2023-05-29T14:18:59;15.55;;;7.07;;
47337;SDS011;33069;51.970;5.892;2023-05-29T14:21:26;15.98;;;9.02;;
47337;SDS011;33069;51.970;5.892;2023-05-29T14:23:51;19.38;;;8.48;;
47337;SDS011;33069;51.970;5.892;2023-05-29T14:26:17;20.08;;;8.65;;
47337;SDS011;33069;51.970;5.892;2023-05-29T14:28:43;13.70;;;7.32;;
47337;SDS011;33069;51.970;5.892;2023-05-29T14:31:09;12.90;;;7.80;;
47337;SDS011;33069;51.970;5.892;2023-05-29T14:33:35;16.85;;;8.30;;
47337;SDS011;33069;51.970;5.892;2023-05-29T14:36:03;15.98;;;8.70;;
47337;SDS011;33069;51.970;5.892;2023-05-29T14:38:29;13.38;;;7.45;;
47337;SDS011;33069;51.970;5.892;2023-05-29T14:40:55;12.15;;;8.00;;
47337;SDS011;33069;51.970;5.892;2023-05-29T14:43:21;16.52;;;8.52;;
47337;SDS011;33069;51.970;5.892;2023-05-29T14:45:46;18.77;;;7.97;;
47337;SDS011;33069;51.970;5.892;2023-05-29T14:48:12;18.48;;;8.02;;
47337;SDS011;33069;51.970;5.892;2023-05-29T14:50:38;14.18;;;8.90;;
47337;SDS011;33069;51.970;5.892;2023-05-29T14:53:03;14.80;;;8.50;;
47337;SDS011;33069;51.970;5.892;2023-05-29T14:55:29;21.23;;;8.63;;
47337;SDS011;33069;51.970;5.892;2023-05-29T14:58:02;21.63;;;8.75;;